createdAt,value
2023-04-18T00:00:42.989Z,8.20
2023-04-18T00:17:13.185Z,8.16
2023-04-18T00:22:16.375Z,8.13
2023-04-18T00:27:17.669Z,8.13
2023-04-18T00:32:19.654Z,8.15
2023-04-18T00:37:20.929Z,8.09
2023-04-18T00:42:22.190Z,8.04
2023-04-18T00:47:23.404Z,7.94
2023-04-18T00:52:25.986Z,7.89
2023-04-18T00:57:27.248Z,7.83
2023-04-18T01:02:31.943Z,7.75
2023-04-18T01:07:33.479Z,7.68
2023-04-18T01:12:34.676Z,7.57
2023-04-18T01:17:36.018Z,7.46
2023-04-18T01:22:37.564Z,7.41
2023-04-18T01:27:38.731Z,7.31
2023-04-18T01:32:39.935Z,7.25
2023-04-18T01:37:41.200Z,7.14
2023-04-18T01:42:42.373Z,7.07
2023-04-18T01:47:43.616Z,6.99
2023-04-18T01:52:44.934Z,6.98
2023-04-18T01:57:46.335Z,6.94
2023-04-18T02:02:47.774Z,6.85
2023-04-18T02:07:50.192Z,6.76
2023-04-18T02:12:51.362Z,6.70
2023-04-18T02:17:53.577Z,6.63
2023-04-18T02:22:54.809Z,6.58
2023-04-18T02:27:56.040Z,6.59
2023-04-18T02:32:57.325Z,6.58
2023-04-18T02:37:58.514Z,6.56
2023-04-18T02:42:59.678Z,6.51
2023-04-18T02:48:00.968Z,6.46
2023-04-18T02:53:02.376Z,6.42
2023-04-18T02:58:03.501Z,6.36
2023-04-18T03:03:05.506Z,6.31
2023-04-18T03:08:06.765Z,6.24
2023-04-18T03:13:07.957Z,6.19
2023-04-18T03:18:09.164Z,6.19
2023-04-18T03:23:10.472Z,6.15
2023-04-18T03:28:11.666Z,6.10
2023-04-18T03:33:14.403Z,6.10
2023-04-18T03:38:15.655Z,6.09
2023-04-18T03:43:16.904Z,6.08
2023-04-18T03:48:18.243Z,6.04
2023-04-18T03:53:19.411Z,6.01
2023-04-18T03:58:23.677Z,5.94
2023-04-18T04:03:25.247Z,5.85
2023-04-18T04:08:28.254Z,5.81
2023-04-18T04:13:29.527Z,5.78
2023-04-18T04:18:31.222Z,5.82
2023-04-18T04:23:33.088Z,5.80
2023-04-18T04:28:35.978Z,5.79
2023-04-18T04:33:38.739Z,5.79
2023-04-18T04:38:40.535Z,5.75
2023-04-18T04:43:42.830Z,5.77
2023-04-18T04:48:43.964Z,5.83
2023-04-18T04:53:45.497Z,5.90
2023-04-18T04:58:47.156Z,5.92
2023-04-18T05:03:49.820Z,6.00
2023-04-18T05:08:51.159Z,6.11
2023-04-18T05:13:52.377Z,6.18
2023-04-18T05:18:53.582Z,6.23
2023-04-18T05:23:55.009Z,6.27
2023-04-18T05:28:56.227Z,6.30
2023-04-18T05:33:57.520Z,6.35
2023-04-18T05:38:58.703Z,6.40
2023-04-18T05:44:05.456Z,6.48
2023-04-18T05:49:07.029Z,6.60
2023-04-18T05:54:08.220Z,6.70
2023-04-18T05:59:09.381Z,6.77
2023-04-18T06:04:10.735Z,6.80
2023-04-18T06:09:12.158Z,6.87
2023-04-18T06:14:13.665Z,7.01
2023-04-18T06:19:15.190Z,7.24
2023-04-18T06:24:16.640Z,7.38
2023-04-18T06:29:18.230Z,7.48
2023-04-18T06:34:19.431Z,7.49
2023-04-18T06:39:21.140Z,7.54
2023-04-18T06:44:22.404Z,7.64
2023-04-18T06:49:26.494Z,7.71
2023-04-18T06:54:27.900Z,7.86
2023-04-18T06:59:29.078Z,7.97
2023-04-18T07:04:30.604Z,8.01
2023-04-18T07:09:31.854Z,8.23
2023-04-18T07:14:34.225Z,8.57
2023-04-18T07:19:36.176Z,8.62
2023-04-18T07:24:39.246Z,8.70
2023-04-18T07:29:40.566Z,8.95
2023-04-18T07:34:41.758Z,9.11
2023-04-18T07:39:43.016Z,9.01
2023-04-18T07:44:44.552Z,9.06
2023-04-18T07:49:45.808Z,9.12
2023-04-18T07:54:46.945Z,9.22
2023-04-18T07:59:48.184Z,9.38
2023-04-18T08:04:50.064Z,9.82
2023-04-18T08:09:51.373Z,9.93
2023-04-18T08:14:52.560Z,9.91
2023-04-18T08:19:53.844Z,10.00
2023-04-18T08:25:04.232Z,10.33
2023-04-18T08:30:07.080Z,9.99
2023-04-18T08:35:08.373Z,9.95
2023-04-18T08:40:09.652Z,10.18
2023-04-18T08:45:12.369Z,10.70
2023-04-18T08:50:13.523Z,10.64
2023-04-18T08:55:15.828Z,11.19
2023-04-18T09:00:17.074Z,11.21
2023-04-18T09:05:21.200Z,11.12
2023-04-18T09:10:22.388Z,11.23
2023-04-18T09:15:24.006Z,10.74
2023-04-18T09:20:25.599Z,10.67
2023-04-18T09:25:27.234Z,11.21
2023-04-18T09:30:28.569Z,11.98
2023-04-18T09:35:29.808Z,11.28
2023-04-18T09:40:31.017Z,11.84
2023-04-18T09:45:32.219Z,11.58
2023-04-18T09:50:33.411Z,12.94
2023-04-18T09:55:34.600Z,13.69
2023-04-18T10:00:35.831Z,14.52
2023-04-18T10:05:37.303Z,16.08
2023-04-18T10:10:39.197Z,16.04
2023-04-18T10:15:42.398Z,15.93
2023-04-18T10:20:45.327Z,15.65
2023-04-18T10:25:46.486Z,14.62
2023-04-18T10:30:47.629Z,16.00
2023-04-18T10:35:48.818Z,16.94
2023-04-18T10:40:50.096Z,15.63
2023-04-18T10:45:51.320Z,15.13
2023-04-18T10:50:52.532Z,13.88
2023-04-18T10:55:53.732Z,13.43
2023-04-18T11:00:55.008Z,13.35
2023-04-18T11:05:56.269Z,14.19
2023-04-18T11:10:57.909Z,14.78
2023-04-18T11:15:59.159Z,16.14
2023-04-18T11:21:03.705Z,17.83
2023-04-18T11:26:04.878Z,17.55
2023-04-18T11:31:06.077Z,16.66
2023-04-18T11:36:07.432Z,17.34
2023-04-18T11:41:08.722Z,19.29
2023-04-18T11:46:09.962Z,18.11
2023-04-18T11:51:11.364Z,17.87
2023-04-18T11:56:12.518Z,16.79
2023-04-18T12:01:13.657Z,15.46
2023-04-18T12:06:14.927Z,16.07
2023-04-18T12:11:16.296Z,16.22
2023-04-18T12:16:17.573Z,16.28
2023-04-18T12:21:19.651Z,16.47
2023-04-18T12:26:22.923Z,16.00
2023-04-18T12:31:24.201Z,16.03
2023-04-18T12:36:26.477Z,16.07
2023-04-18T12:41:27.709Z,16.15
2023-04-18T12:46:28.984Z,15.91
2023-04-18T12:51:31.373Z,15.85
2023-04-18T12:56:32.605Z,15.93
2023-04-18T13:01:33.875Z,16.19
2023-04-18T13:06:35.552Z,16.63
2023-04-18T13:11:36.751Z,16.23
2023-04-18T13:16:38.069Z,15.44
2023-04-18T13:21:39.357Z,15.03
2023-04-18T13:26:40.572Z,15.28
2023-04-18T13:31:41.877Z,15.97
2023-04-18T13:36:43.154Z,16.01
2023-04-18T13:41:44.669Z,15.98
2023-04-18T13:46:45.869Z,15.84
2023-04-18T13:51:47.033Z,15.52
2023-04-18T13:56:48.193Z,15.26
2023-04-18T14:01:49.380Z,15.28
2023-04-18T14:06:50.759Z,15.52
2023-04-18T14:11:51.965Z,15.50
2023-04-18T14:16:53.920Z,15.35
2023-04-18T14:21:55.157Z,15.45
2023-04-18T14:26:56.369Z,15.85
2023-04-18T14:31:57.649Z,15.89
2023-04-18T14:36:58.842Z,15.59
2023-04-18T14:42:01.425Z,15.38
2023-04-18T14:47:02.745Z,15.02
2023-04-18T14:52:04.109Z,14.93
2023-04-18T14:57:05.864Z,15.07
2023-04-18T15:02:07.150Z,15.32
2023-04-18T15:07:08.381Z,15.64
2023-04-18T15:12:09.590Z,15.88
2023-04-18T15:17:10.988Z,15.60
2023-04-18T15:22:12.186Z,15.68
2023-04-18T15:27:13.384Z,16.12
2023-04-18T15:32:14.733Z,15.77
2023-04-18T15:37:16.093Z,15.28
2023-04-18T15:42:17.379Z,15.24
2023-04-18T15:47:18.542Z,15.35
2023-04-18T15:52:19.723Z,14.97
2023-04-18T15:57:21.754Z,14.79
2023-04-18T16:02:23.041Z,14.68
2023-04-18T16:07:24.287Z,14.82
2023-04-18T16:12:25.635Z,14.80
2023-04-18T16:17:26.880Z,14.92
2023-04-18T16:22:28.086Z,15.19
2023-04-18T16:27:29.459Z,15.60
2023-04-18T16:32:30.675Z,15.80
2023-04-18T16:37:31.892Z,15.51
2023-04-18T16:42:33.125Z,15.39
2023-04-18T16:47:34.391Z,15.16
2023-04-18T16:52:35.620Z,15.05
2023-04-18T16:57:36.813Z,14.99
2023-04-18T17:02:39.742Z,14.84
2023-04-18T17:07:40.973Z,14.77
2023-04-18T17:12:42.518Z,14.69
2023-04-18T17:17:43.814Z,14.59
2023-04-18T17:22:45.192Z,14.51
2023-04-18T17:27:46.736Z,14.39
2023-04-18T17:32:47.986Z,14.13
2023-04-18T17:37:49.228Z,13.98
2023-04-18T17:42:50.396Z,13.87
2023-04-18T17:47:51.625Z,13.78
2023-04-18T17:52:53.164Z,13.73
2023-04-18T17:57:54.327Z,13.61
2023-04-18T18:02:55.653Z,13.50
2023-04-18T18:07:57.972Z,13.37
2023-04-18T18:12:59.686Z,13.27
2023-04-18T18:18:01.866Z,13.18
2023-04-18T18:23:03.320Z,13.02
2023-04-18T18:28:04.469Z,12.90
2023-04-18T18:33:05.859Z,12.84
2023-04-18T18:38:07.145Z,12.75
2023-04-18T18:43:08.359Z,12.68
2023-04-18T18:48:10.366Z,12.57
2023-04-18T18:53:11.786Z,12.40
2023-04-18T18:58:13.022Z,12.23
2023-04-18T19:03:14.378Z,12.12
2023-04-18T19:08:15.687Z,12.12
2023-04-18T19:13:16.878Z,12.16
2023-04-18T19:18:19.920Z,12.22
2023-04-18T19:23:21.156Z,12.34
2023-04-18T19:28:22.850Z,12.38
2023-04-18T19:33:27.911Z,12.38
2023-04-18T19:38:29.147Z,12.41
2023-04-18T19:43:30.463Z,12.39
2023-04-18T19:48:31.738Z,12.35
2023-04-18T19:53:33.007Z,12.33
2023-04-18T19:58:35.348Z,12.33
2023-04-18T20:03:36.857Z,12.33
2023-04-18T20:08:38.212Z,12.32
2023-04-18T20:13:39.498Z,12.29
2023-04-18T20:18:41.333Z,12.32
2023-04-18T20:23:42.703Z,12.28
2023-04-18T20:28:43.879Z,12.27
2023-04-18T20:33:45.071Z,12.26
2023-04-18T20:38:46.286Z,12.23
2023-04-18T20:43:47.557Z,12.20
2023-04-18T20:48:48.763Z,12.18
2023-04-18T20:53:49.952Z,12.18
2023-04-18T20:58:51.222Z,12.14
2023-04-18T21:03:52.868Z,12.11
2023-04-18T21:08:54.226Z,12.10
2023-04-18T21:13:55.464Z,12.09
2023-04-18T21:18:56.643Z,12.05
2023-04-18T21:23:57.944Z,12.00
2023-04-18T21:28:59.198Z,11.98
2023-04-18T21:34:00.438Z,11.94
2023-04-18T21:39:01.686Z,11.94
2023-04-18T21:44:02.866Z,11.93
2023-04-18T21:49:04.074Z,11.92
2023-04-18T21:54:07.083Z,11.93
2023-04-18T21:59:08.243Z,11.91
2023-04-18T22:04:09.717Z,11.91
2023-04-18T22:09:11.726Z,11.90
2023-04-18T22:14:14.712Z,11.89
2023-04-18T22:19:16.430Z,11.86
2023-04-18T22:24:18.234Z,11.84
2023-04-18T22:29:19.441Z,11.80
2023-04-18T22:34:20.669Z,11.79
2023-04-18T22:39:21.853Z,11.80
2023-04-18T22:44:23.071Z,11.80
2023-04-18T22:49:24.291Z,11.77
2023-04-18T22:54:25.701Z,11.74
2023-04-18T22:59:26.882Z,11.71
2023-04-18T23:04:29.935Z,11.67
2023-04-18T23:09:31.386Z,11.68
2023-04-18T23:14:32.552Z,11.65
2023-04-18T23:19:33.774Z,11.63
2023-04-18T23:24:34.965Z,11.61
2023-04-18T23:29:36.552Z,11.55
2023-04-18T23:34:37.769Z,11.42
2023-04-18T23:39:38.953Z,11.30
2023-04-18T23:44:40.165Z,11.25
2023-04-18T23:49:41.292Z,11.21
2023-04-18T23:54:42.495Z,11.17
2023-04-18T23:59:43.670Z,11.14
